createdAt,value
2018-03-29T00:01:47.096Z,4.35
2018-03-29T00:04:14.621Z,4.35
2018-03-29T00:06:42.154Z,4.37
2018-03-29T00:09:09.681Z,3.60
2018-03-29T00:11:37.185Z,4.45
2018-03-29T00:14:04.695Z,4.75
2018-03-29T00:16:32.256Z,5.07
2018-03-29T00:19:00.564Z,4.75
2018-03-29T00:21:28.098Z,5.00
2018-03-29T00:23:55.676Z,4.43
2018-03-29T00:26:23.215Z,5.30
2018-03-29T00:28:51.494Z,4.90
2018-03-29T00:31:18.987Z,5.43
2018-03-29T00:33:46.499Z,5.57
2018-03-29T00:36:14.904Z,4.62
2018-03-29T00:38:42.406Z,5.60
2018-03-29T00:41:09.900Z,5.57
2018-03-29T00:43:38.196Z,5.10
2018-03-29T00:46:05.810Z,4.82
2018-03-29T00:48:33.345Z,5.80
2018-03-29T00:51:00.921Z,5.05
2018-03-29T00:53:40.142Z,5.45
2018-03-29T00:56:07.679Z,5.30
2018-03-29T00:58:35.200Z,4.95
2018-03-29T01:01:03.476Z,4.95
2018-03-29T01:03:31.745Z,5.00
2018-03-29T01:06:00.039Z,4.75
2018-03-29T01:08:33.191Z,4.90
2018-03-29T01:11:00.699Z,4.82
2018-03-29T01:13:28.224Z,4.60
2018-03-29T01:15:56.524Z,3.95
2018-03-29T01:18:24.065Z,5.20
2018-03-29T01:20:52.335Z,4.93
2018-03-29T01:23:19.869Z,4.50
2018-03-29T01:25:47.377Z,3.75
2018-03-29T01:28:14.909Z,4.40
2018-03-29T01:30:43.211Z,4.00
2018-03-29T01:33:10.769Z,3.80
2018-03-29T01:35:38.300Z,3.60
2018-03-29T01:38:05.911Z,4.32
2018-03-29T01:40:33.423Z,3.47
2018-03-29T01:43:00.936Z,4.30
2018-03-29T01:45:28.481Z,4.12
2018-03-29T01:47:55.987Z,3.70
2018-03-29T01:50:23.524Z,4.35
2018-03-29T01:52:51.057Z,4.32
2018-03-29T01:55:18.555Z,4.35
2018-03-29T01:57:46.061Z,4.45
2018-03-29T02:00:13.583Z,5.15
2018-03-29T02:02:41.094Z,4.82
2018-03-29T02:05:08.624Z,4.20
2018-03-29T02:07:36.164Z,4.93
2018-03-29T02:10:03.672Z,4.53
2018-03-29T02:12:31.179Z,4.90
2018-03-29T02:14:59.480Z,4.97
2018-03-29T02:17:27.032Z,5.60
2018-03-29T02:19:54.572Z,4.75
2018-03-29T02:22:22.844Z,6.40
2018-03-29T02:24:50.346Z,5.20
2018-03-29T02:27:17.887Z,5.22
2018-03-29T02:29:45.425Z,5.40
2018-03-29T02:32:13.737Z,5.82
2018-03-29T02:34:41.277Z,4.93
2018-03-29T02:37:08.805Z,4.87
2018-03-29T02:39:36.325Z,5.12
2018-03-29T02:42:03.822Z,5.53
2018-03-29T02:44:31.334Z,5.07
2018-03-29T02:46:58.839Z,4.70
2018-03-29T02:49:26.376Z,5.05
2018-03-29T02:51:53.917Z,5.22
2018-03-29T02:54:21.440Z,5.20
2018-03-29T02:56:48.952Z,4.57
2018-03-29T02:59:16.481Z,5.03
2018-03-29T03:01:44.060Z,3.87
2018-03-29T03:04:11.568Z,4.20
2018-03-29T03:06:39.837Z,5.45
2018-03-29T03:09:08.325Z,4.70
2018-03-29T03:11:36.592Z,4.80
2018-03-29T03:14:04.884Z,4.15
2018-03-29T03:16:32.386Z,3.90
2018-03-29T03:18:59.920Z,4.40
2018-03-29T03:21:27.444Z,3.97
2018-03-29T03:23:55.716Z,4.95
2018-03-29T03:26:24.010Z,5.10
2018-03-29T03:28:51.516Z,4.25
2018-03-29T03:31:19.058Z,3.60
2018-03-29T03:33:46.565Z,4.10
2018-03-29T03:36:14.857Z,4.60
2018-03-29T03:38:42.395Z,3.60
2018-03-29T03:41:09.942Z,4.93
2018-03-29T03:43:37.463Z,4.25
2018-03-29T03:46:04.985Z,5.07
2018-03-29T03:48:32.506Z,4.93
2018-03-29T03:51:00.003Z,4.43
2018-03-29T03:53:28.267Z,4.37
2018-03-29T03:55:56.690Z,5.45
2018-03-29T03:58:24.200Z,5.10
2018-03-29T04:00:52.493Z,5.47
2018-03-29T04:03:20.027Z,5.12
2018-03-29T04:05:47.568Z,4.78
2018-03-29T04:08:15.101Z,4.72
2018-03-29T04:10:42.616Z,4.43
2018-03-29T04:13:10.115Z,5.00
2018-03-29T04:15:37.645Z,5.00
2018-03-29T04:18:05.180Z,4.70
2018-03-29T04:20:32.683Z,4.68
2018-03-29T04:23:00.364Z,4.80
2018-03-29T04:25:27.876Z,4.40
2018-03-29T04:27:55.372Z,4.47
2018-03-29T04:30:22.867Z,4.90
2018-03-29T04:32:51.166Z,4.97
2018-03-29T04:35:18.724Z,5.95
2018-03-29T04:37:46.216Z,5.40
2018-03-29T04:40:13.727Z,4.93
2018-03-29T04:42:41.257Z,5.47
2018-03-29T04:45:08.764Z,4.93
2018-03-29T04:47:36.300Z,5.45
2018-03-29T04:50:03.845Z,4.87
2018-03-29T04:52:31.351Z,5.50
2018-03-29T04:54:58.854Z,6.18
2018-03-29T04:57:26.355Z,4.87
2018-03-29T04:59:53.921Z,5.90
2018-03-29T05:02:21.434Z,6.45
2018-03-29T05:04:48.958Z,5.82
2018-03-29T05:07:16.469Z,5.65
2018-03-29T05:09:44.771Z,4.80
2018-03-29T05:12:12.309Z,6.57
2018-03-29T05:14:39.841Z,5.75
2018-03-29T05:17:07.346Z,5.90
2018-03-29T05:19:34.925Z,6.53
2018-03-29T05:22:02.427Z,6.35
2018-03-29T05:24:30.734Z,5.93
2018-03-29T05:26:58.240Z,6.80
2018-03-29T05:29:25.760Z,7.55
2018-03-29T05:31:53.256Z,7.15
2018-03-29T05:34:20.760Z,7.25
2018-03-29T05:36:48.276Z,6.57
2018-03-29T05:39:15.771Z,6.75
2018-03-29T05:41:43.296Z,6.53
2018-03-29T05:44:10.801Z,6.55
2018-03-29T05:46:38.321Z,7.62
2018-03-29T05:49:05.840Z,7.65
2018-03-29T05:51:33.345Z,7.30
2018-03-29T05:54:01.330Z,6.70
2018-03-29T05:56:28.886Z,7.87
2018-03-29T05:58:56.388Z,6.75
2018-03-29T06:01:23.922Z,7.53
2018-03-29T06:03:51.440Z,7.97
2018-03-29T06:06:18.990Z,6.95
2018-03-29T06:08:46.499Z,7.30
2018-03-29T06:11:14.036Z,9.18
2018-03-29T06:13:41.556Z,8.88
2018-03-29T06:16:09.088Z,8.05
2018-03-29T06:18:36.592Z,6.87
2018-03-29T06:21:04.867Z,7.32
2018-03-29T06:23:33.136Z,7.50
2018-03-29T06:26:00.670Z,8.35
2018-03-29T06:28:28.190Z,8.07
2018-03-29T06:30:55.712Z,10.15
2018-03-29T06:33:23.242Z,7.95
2018-03-29T06:35:50.753Z,8.82
2018-03-29T06:38:18.261Z,8.43
2018-03-29T06:40:45.792Z,9.05
2018-03-29T06:43:13.301Z,8.02
2018-03-29T06:45:40.801Z,7.62
2018-03-29T06:48:08.320Z,7.65
2018-03-29T06:50:36.617Z,8.15
2018-03-29T06:53:04.152Z,8.82
2018-03-29T06:55:31.702Z,9.68
2018-03-29T06:57:59.215Z,8.75
2018-03-29T07:00:26.879Z,8.63
2018-03-29T07:02:54.407Z,10.98
2018-03-29T07:05:21.942Z,9.75
2018-03-29T07:07:49.481Z,8.77
2018-03-29T07:10:17.023Z,8.30
2018-03-29T07:12:44.545Z,8.85
2018-03-29T07:15:12.061Z,8.25
2018-03-29T07:17:39.597Z,7.25
2018-03-29T07:20:07.124Z,7.35
2018-03-29T07:22:34.644Z,8.82
2018-03-29T07:25:02.196Z,8.65
2018-03-29T07:27:29.742Z,9.35
2018-03-29T07:29:57.271Z,6.50
2018-03-29T07:32:24.768Z,8.23
2018-03-29T07:34:52.277Z,8.63
2018-03-29T07:37:19.812Z,8.40
2018-03-29T07:39:47.360Z,8.45
2018-03-29T07:42:15.676Z,7.97
2018-03-29T07:44:43.236Z,8.65
2018-03-29T07:47:10.829Z,9.10
2018-03-29T07:49:38.336Z,7.10
2018-03-29T07:52:05.843Z,9.55
2018-03-29T07:54:33.362Z,8.15
2018-03-29T07:57:00.894Z,8.50
2018-03-29T07:59:28.436Z,8.23
2018-03-29T08:01:55.941Z,8.63
2018-03-29T08:04:23.446Z,7.35
2018-03-29T08:06:50.958Z,8.15
2018-03-29T08:09:18.488Z,7.53
2018-03-29T08:11:46.797Z,7.28
2018-03-29T08:14:14.304Z,7.60
2018-03-29T08:16:41.845Z,8.43
2018-03-29T08:19:09.389Z,8.43
2018-03-29T08:21:36.899Z,8.02
2018-03-29T08:24:04.434Z,7.57
2018-03-29T08:26:31.937Z,8.10
2018-03-29T08:28:59.464Z,8.80
2018-03-29T08:31:27.022Z,10.07
2018-03-29T08:33:55.348Z,7.97
2018-03-29T08:36:22.890Z,8.00
2018-03-29T08:38:50.429Z,8.13
2018-03-29T08:41:17.974Z,8.98
2018-03-29T08:43:45.481Z,9.10
2018-03-29T08:46:13.028Z,8.48
2018-03-29T08:48:40.533Z,8.02
2018-03-29T08:51:08.073Z,8.55
2018-03-29T08:53:35.615Z,8.38
2018-03-29T08:56:03.120Z,7.82
2018-03-29T08:58:30.638Z,8.07
2018-03-29T09:00:58.178Z,8.52
2018-03-29T09:03:25.728Z,7.80
2018-03-29T09:05:53.267Z,8.40
2018-03-29T09:08:21.576Z,8.25
2018-03-29T09:10:49.116Z,9.73
2018-03-29T09:13:16.651Z,8.48
2018-03-29T09:15:44.223Z,10.27
2018-03-29T09:18:11.752Z,10.60
2018-03-29T09:20:39.291Z,10.35
2018-03-29T09:23:06.806Z,8.43
2018-03-29T09:25:34.310Z,8.85
2018-03-29T09:28:01.865Z,9.57
2018-03-29T09:30:29.404Z,10.20
2018-03-29T09:32:56.957Z,10.32
2018-03-29T09:35:24.507Z,10.18
2018-03-29T09:37:52.023Z,9.18
2018-03-29T09:40:19.576Z,9.70
2018-03-29T09:42:47.130Z,10.35
2018-03-29T09:45:14.640Z,10.63
2018-03-29T09:47:42.227Z,10.38
2018-03-29T09:50:10.466Z,9.50
2018-03-29T09:52:38.771Z,8.98
2018-03-29T09:55:06.323Z,9.32
2018-03-29T09:57:33.842Z,9.07
2018-03-29T10:00:01.346Z,8.85
2018-03-29T10:02:31.711Z,10.50
2018-03-29T10:05:03.085Z,8.77
2018-03-29T10:07:34.372Z,10.20
2018-03-29T10:10:01.890Z,9.50
2018-03-29T10:12:30.159Z,9.77
2018-03-29T10:14:58.429Z,7.80
2018-03-29T10:17:25.965Z,9.65
2018-03-29T10:19:53.513Z,10.05
2018-03-29T10:22:21.063Z,10.30
2018-03-29T10:24:48.612Z,9.10
2018-03-29T10:27:16.136Z,9.80
2018-03-29T10:29:44.466Z,9.90
2018-03-29T10:32:12.023Z,9.00
2018-03-29T10:34:39.568Z,10.20
2018-03-29T10:37:07.123Z,9.77
2018-03-29T10:39:34.664Z,9.57
2018-03-29T10:42:02.193Z,10.35
2018-03-29T10:44:29.747Z,8.73
2018-03-29T10:46:58.075Z,10.32
2018-03-29T10:49:25.633Z,8.82
2018-03-29T10:51:53.272Z,9.57
2018-03-29T10:54:20.780Z,9.77
2018-03-29T10:56:48.307Z,6.70
2018-03-29T10:59:15.850Z,9.45
2018-03-29T11:01:43.367Z,9.23
2018-03-29T11:04:10.894Z,8.13
2018-03-29T11:06:38.438Z,6.90
2018-03-29T11:09:05.965Z,7.40
2018-03-29T11:11:33.496Z,7.55
2018-03-29T11:14:01.037Z,7.47
2018-03-29T11:16:28.603Z,7.55
2018-03-29T11:18:56.117Z,6.53
2018-03-29T11:21:24.419Z,6.72
2018-03-29T11:23:51.968Z,6.10
2018-03-29T11:26:19.505Z,6.07
2018-03-29T11:28:47.780Z,7.18
2018-03-29T11:31:16.086Z,5.70
2018-03-29T11:33:43.632Z,5.45
2018-03-29T11:36:11.234Z,5.53
2018-03-29T11:38:38.786Z,5.90
2018-03-29T11:41:06.317Z,5.85
2018-03-29T11:43:33.834Z,3.95
2018-03-29T11:46:01.360Z,6.75
2018-03-29T11:48:28.875Z,4.97
2018-03-29T11:50:56.422Z,5.78
2018-03-29T11:53:23.948Z,5.85
2018-03-29T11:55:51.460Z,4.80
2018-03-29T11:58:18.992Z,5.15
2018-03-29T12:00:46.519Z,4.75
2018-03-29T12:03:14.066Z,5.35
2018-03-29T12:05:41.592Z,6.43
2018-03-29T12:08:09.092Z,5.53
2018-03-29T12:10:37.408Z,5.05
2018-03-29T12:13:04.961Z,4.75
2018-03-29T12:15:33.251Z,5.70
2018-03-29T12:18:00.787Z,4.97
2018-03-29T12:20:29.126Z,5.07
2018-03-29T12:22:56.682Z,4.50
2018-03-29T12:25:24.195Z,4.47
2018-03-29T12:27:52.528Z,5.47
2018-03-29T12:30:20.095Z,4.90
2018-03-29T12:32:47.639Z,4.43
2018-03-29T12:35:15.156Z,5.03
2018-03-29T12:37:42.727Z,4.40
2018-03-29T12:40:10.269Z,4.37
2018-03-29T12:42:37.828Z,5.85
2018-03-29T12:45:05.448Z,4.40
2018-03-29T12:47:32.937Z,4.82
2018-03-29T12:50:00.453Z,4.28
2018-03-29T12:52:28.020Z,5.05
2018-03-29T12:55:07.387Z,4.50
2018-03-29T12:57:47.422Z,4.80
2018-03-29T13:00:14.951Z,5.45
2018-03-29T13:02:42.504Z,5.55
2018-03-29T13:05:10.044Z,4.68
2018-03-29T13:07:37.599Z,4.97
2018-03-29T13:10:05.136Z,4.97
2018-03-29T13:12:33.413Z,6.00
2018-03-29T13:15:00.942Z,4.85
2018-03-29T13:17:28.498Z,5.70
2018-03-29T13:19:56.077Z,5.97
2018-03-29T13:22:24.369Z,5.03
2018-03-29T13:24:52.651Z,4.80
2018-03-29T13:27:20.958Z,5.70
2018-03-29T13:29:48.509Z,4.37
2018-03-29T13:32:16.042Z,4.68
2018-03-29T13:34:44.340Z,4.05
2018-03-29T13:37:11.885Z,3.75
2018-03-29T13:39:39.428Z,4.43
2018-03-29T13:42:07.726Z,4.47
2018-03-29T13:44:35.271Z,3.97
2018-03-29T13:47:02.834Z,4.78
2018-03-29T13:49:30.370Z,3.92
2018-03-29T13:51:57.939Z,3.80
2018-03-29T13:54:26.237Z,4.90
2018-03-29T13:56:53.748Z,4.43
2018-03-29T13:59:21.334Z,5.35
2018-03-29T14:01:48.804Z,4.37
2018-03-29T14:04:16.352Z,4.00
2018-03-29T14:06:43.876Z,4.30
2018-03-29T14:09:11.435Z,3.85
2018-03-29T14:11:38.977Z,4.47
2018-03-29T14:14:06.527Z,5.95
2018-03-29T14:16:34.071Z,5.60
2018-03-29T14:19:01.625Z,4.18
2018-03-29T14:21:29.181Z,4.37
2018-03-29T14:23:56.731Z,4.60
2018-03-29T14:26:24.252Z,4.50
2018-03-29T14:28:51.838Z,4.05
2018-03-29T14:31:19.404Z,4.47
2018-03-29T14:33:46.928Z,3.85
2018-03-29T14:36:14.442Z,5.20
2018-03-29T14:38:42.037Z,5.20
2018-03-29T14:41:09.615Z,4.40
2018-03-29T14:43:37.183Z,5.37
2018-03-29T14:46:04.721Z,3.70
2018-03-29T14:48:32.255Z,4.32
2018-03-29T14:51:00.645Z,3.05
2018-03-29T14:53:28.255Z,4.45
2018-03-29T14:55:55.786Z,3.62
2018-03-29T14:58:23.345Z,4.03
2018-03-29T15:00:50.900Z,3.80
2018-03-29T15:03:18.452Z,3.80
2018-03-29T15:05:45.997Z,4.68
2018-03-29T15:08:13.547Z,1.50
2018-03-29T15:10:41.086Z,3.22
2018-03-29T15:13:08.628Z,3.78
2018-03-29T15:15:36.368Z,3.95
2018-03-29T15:18:04.771Z,3.08
2018-03-29T15:20:32.317Z,2.97
2018-03-29T15:23:00.639Z,4.22
2018-03-29T15:25:28.188Z,3.10
2018-03-29T15:27:55.742Z,2.95
2018-03-29T15:30:23.256Z,2.33
2018-03-29T15:32:50.816Z,3.60
2018-03-29T15:35:19.112Z,3.15
2018-03-29T15:37:47.411Z,2.75
2018-03-29T15:40:14.956Z,3.00
2018-03-29T15:42:42.476Z,2.80
2018-03-29T15:45:10.025Z,2.62
2018-03-29T15:47:37.565Z,3.37
2018-03-29T15:50:05.080Z,3.72
2018-03-29T15:52:33.392Z,2.92
2018-03-29T15:55:00.925Z,3.28
2018-03-29T15:57:28.461Z,3.70
2018-03-29T15:59:56.736Z,2.97
2018-03-29T16:02:25.032Z,2.60
2018-03-29T16:04:52.553Z,2.70
2018-03-29T16:07:20.082Z,3.30
2018-03-29T16:09:47.613Z,4.30
2018-03-29T16:12:15.130Z,4.40
2018-03-29T16:14:42.684Z,3.33
2018-03-29T16:17:10.225Z,2.83
2018-03-29T16:19:37.744Z,2.70
2018-03-29T16:22:05.271Z,3.72
2018-03-29T16:24:32.793Z,3.65
2018-03-29T16:27:00.304Z,3.92
2018-03-29T16:29:27.814Z,3.65
2018-03-29T16:31:56.115Z,3.35
2018-03-29T16:34:23.657Z,3.75
2018-03-29T16:36:51.182Z,3.08
2018-03-29T16:39:18.692Z,3.40
2018-03-29T16:41:46.193Z,3.47
2018-03-29T16:44:13.725Z,3.62
2018-03-29T16:46:42.015Z,3.25
2018-03-29T16:49:10.385Z,3.28
2018-03-29T16:51:38.661Z,3.25
2018-03-29T16:54:06.983Z,3.00
2018-03-29T16:56:34.509Z,3.47
2018-03-29T16:59:02.038Z,4.03
2018-03-29T17:01:29.570Z,6.55
2018-03-29T17:03:57.129Z,5.40
2018-03-29T17:06:24.685Z,3.60
2018-03-29T17:08:52.232Z,4.18
2018-03-29T17:11:19.885Z,3.33
2018-03-29T17:13:47.435Z,3.12
2018-03-29T17:16:15.729Z,3.20
2018-03-29T17:18:43.282Z,3.67
2018-03-29T17:21:10.800Z,5.25
2018-03-29T17:23:39.120Z,4.15
2018-03-29T17:26:06.665Z,4.53
2018-03-29T17:28:34.193Z,3.60
2018-03-29T17:31:02.466Z,3.70
2018-03-29T17:33:30.778Z,3.40
2018-03-29T17:35:58.340Z,3.33
2018-03-29T17:38:25.857Z,3.35
2018-03-29T17:40:54.147Z,3.80
2018-03-29T17:43:22.455Z,3.55
2018-03-29T17:45:50.027Z,4.62
2018-03-29T17:48:17.645Z,5.20
2018-03-29T17:50:45.209Z,5.82
2018-03-29T17:53:12.769Z,4.78
2018-03-29T17:55:40.286Z,5.15
2018-03-29T17:58:07.836Z,4.68
2018-03-29T18:00:35.382Z,5.53
2018-03-29T18:03:02.900Z,5.12
2018-03-29T18:05:30.510Z,4.68
2018-03-29T18:07:58.047Z,4.93
2018-03-29T18:10:25.614Z,5.68
2018-03-29T18:12:53.229Z,6.22
2018-03-29T18:15:20.761Z,5.53
2018-03-29T18:17:48.319Z,5.80
2018-03-29T18:20:15.864Z,4.90
2018-03-29T18:22:43.406Z,5.12
2018-03-29T18:25:10.957Z,4.62
2018-03-29T18:27:38.526Z,4.85
2018-03-29T18:30:06.089Z,3.85
2018-03-29T18:32:33.597Z,2.85
2018-03-29T18:35:01.910Z,3.25
2018-03-29T18:37:29.425Z,3.97
2018-03-29T18:39:56.987Z,4.05
2018-03-29T18:42:25.279Z,4.80
2018-03-29T18:44:52.806Z,4.65
2018-03-29T18:47:20.366Z,6.12
2018-03-29T18:49:48.282Z,5.50
2018-03-29T18:52:15.857Z,6.10
2018-03-29T18:54:43.384Z,5.35
2018-03-29T18:57:10.926Z,5.60
2018-03-29T18:59:39.214Z,4.68
2018-03-29T19:02:06.748Z,4.90
2018-03-29T19:04:35.104Z,4.85
2018-03-29T19:07:02.663Z,4.72
2018-03-29T19:09:30.205Z,4.60
2018-03-29T19:11:57.747Z,4.37
2018-03-29T19:14:25.306Z,5.65
2018-03-29T19:16:52.828Z,5.32
2018-03-29T19:19:20.479Z,5.30
2018-03-29T19:21:48.774Z,4.75
2018-03-29T19:24:16.306Z,6.95
2018-03-29T19:26:43.884Z,6.65
2018-03-29T19:29:12.286Z,6.18
2018-03-29T19:31:39.868Z,5.28
2018-03-29T19:34:07.386Z,5.18
2018-03-29T19:36:35.714Z,5.43
2018-03-29T19:39:03.281Z,5.75
2018-03-29T19:41:30.814Z,7.97
2018-03-29T19:43:58.372Z,8.80
2018-03-29T19:46:25.928Z,8.15
2018-03-29T19:48:53.446Z,6.22
2018-03-29T19:51:21.729Z,7.03
2018-03-29T19:53:49.263Z,7.70
2018-03-29T19:56:16.784Z,5.43
2018-03-29T19:58:44.297Z,5.00
2018-03-29T20:01:11.840Z,5.12
2018-03-29T20:03:39.386Z,5.00
2018-03-29T20:06:06.967Z,5.53
2018-03-29T20:08:34.521Z,6.40
2018-03-29T20:11:02.039Z,5.82
2018-03-29T20:13:29.562Z,5.97
2018-03-29T20:15:57.861Z,6.12
2018-03-29T20:18:26.145Z,7.40
2018-03-29T20:20:53.715Z,6.30
2018-03-29T20:23:21.265Z,7.18
2018-03-29T20:25:49.046Z,6.50
2018-03-29T20:28:16.602Z,5.47
2018-03-29T20:30:44.158Z,5.90
2018-03-29T20:33:11.694Z,5.93
2018-03-29T20:35:39.247Z,5.65
2018-03-29T20:38:06.778Z,6.82
2018-03-29T20:40:35.238Z,7.15
2018-03-29T20:43:02.757Z,6.15
2018-03-29T20:45:30.278Z,6.10
2018-03-29T20:47:58.589Z,6.28
2018-03-29T20:50:26.154Z,5.93
2018-03-29T20:52:53.704Z,7.00
2018-03-29T20:55:21.224Z,5.90
2018-03-29T20:57:49.501Z,6.35
2018-03-29T21:00:17.831Z,7.53
2018-03-29T21:02:45.393Z,7.45
2018-03-29T21:05:12.933Z,5.95
2018-03-29T21:07:40.460Z,7.07
2018-03-29T21:10:07.994Z,8.07
2018-03-29T21:12:35.538Z,7.07
2018-03-29T21:15:03.047Z,7.35
2018-03-29T21:17:30.593Z,6.80
2018-03-29T21:19:58.874Z,7.50
2018-03-29T21:22:27.178Z,7.20
2018-03-29T21:24:54.722Z,8.05
2018-03-29T21:27:22.258Z,8.75
2018-03-29T21:29:50.569Z,6.78
2018-03-29T21:32:18.096Z,6.10
2018-03-29T21:34:45.641Z,6.37
2018-03-29T21:37:13.925Z,6.60
2018-03-29T21:39:42.202Z,7.20
2018-03-29T21:42:10.483Z,6.53
2018-03-29T21:44:38.806Z,6.22
2018-03-29T21:47:06.366Z,8.45
2018-03-29T21:49:33.897Z,6.20
2018-03-29T21:52:01.441Z,6.60
2018-03-29T21:54:29.002Z,4.80
2018-03-29T21:56:56.554Z,5.45
2018-03-29T21:59:24.071Z,5.75
2018-03-29T22:01:51.623Z,5.37
2018-03-29T22:04:19.141Z,4.70
2018-03-29T22:06:46.708Z,6.18
2018-03-29T22:09:14.212Z,6.12
2018-03-29T22:11:41.748Z,5.43
2018-03-29T22:14:09.310Z,5.57
2018-03-29T22:16:36.861Z,5.85
2018-03-29T22:19:04.397Z,4.43
2018-03-29T22:21:31.909Z,5.32
2018-03-29T22:23:59.457Z,4.82
2018-03-29T22:26:26.989Z,6.10
2018-03-29T22:28:54.500Z,5.53
2018-03-29T22:31:22.012Z,5.45
2018-03-29T22:33:49.567Z,5.18
2018-03-29T22:36:17.120Z,5.60
2018-03-29T22:38:44.681Z,5.60
2018-03-29T22:41:12.225Z,5.18
2018-03-29T22:43:39.782Z,5.28
2018-03-29T22:46:07.329Z,4.70
2018-03-29T22:48:34.865Z,5.30
2018-03-29T22:51:03.173Z,5.85
2018-03-29T22:53:30.713Z,5.18
2018-03-29T22:55:58.257Z,5.35
2018-03-29T22:58:25.796Z,5.87
2018-03-29T23:00:53.315Z,5.37
2018-03-29T23:03:20.860Z,5.40
2018-03-29T23:05:48.371Z,6.05
2018-03-29T23:08:15.895Z,6.28
2018-03-29T23:10:43.403Z,4.47
2018-03-29T23:13:10.942Z,5.97
2018-03-29T23:15:38.473Z,5.70
2018-03-29T23:18:05.994Z,5.30
2018-03-29T23:20:34.285Z,6.07
2018-03-29T23:23:01.805Z,5.60
2018-03-29T23:25:29.312Z,4.50
2018-03-29T23:27:56.849Z,5.10
2018-03-29T23:30:24.404Z,6.05
2018-03-29T23:32:51.948Z,5.10
2018-03-29T23:35:19.475Z,6.32
2018-03-29T23:37:47.009Z,5.65
2018-03-29T23:40:14.530Z,6.93
2018-03-29T23:42:42.812Z,6.00
2018-03-29T23:45:11.103Z,5.15
2018-03-29T23:47:38.641Z,7.68
2018-03-29T23:50:06.155Z,6.30
2018-03-29T23:52:33.683Z,6.80
2018-03-29T23:55:01.194Z,6.20
2018-03-29T23:57:28.737Z,6.32
2018-03-29T23:59:56.280Z,6.00
